sensor_id;sensor_type;location;lat;lon;timestamp;pressure;altitude;pressure_sealevel;temperature;humidity
36386;BME280;24125;47.482;8.770;2022-10-20T00:01:27;96519.81;;;17.71;72.42
36386;BME280;24125;47.482;8.770;2022-10-20T00:04:00;96518.28;;;17.73;72.36
36386;BME280;24125;47.482;8.770;2022-10-20T00:06:33;96516.00;;;17.76;72.19
36386;BME280;24125;47.482;8.770;2022-10-20T00:09:05;96518.00;;;17.79;72.50
36386;BME280;24125;47.482;8.770;2022-10-20T00:11:40;96522.66;;;17.82;72.56
36386;BME280;24125;47.482;8.770;2022-10-20T00:14:13;96513.06;;;17.84;72.28
36386;BME280;24125;47.482;8.770;2022-10-20T00:16:46;96509.63;;;17.87;72.31
36386;BME280;24125;47.482;8.770;2022-10-20T00:19:19;96514.28;;;17.90;72.41
36386;BME280;24125;47.482;8.770;2022-10-20T00:21:52;96510.09;;;17.93;72.30
36386;BME280;24125;47.482;8.770;2022-10-20T00:24:25;96504.69;;;17.93;72.35
36386;BME280;24125;47.482;8.770;2022-10-20T00:26:59;96506.25;;;17.94;72.04
36386;BME280;24125;47.482;8.770;2022-10-20T00:29:32;96495.09;;;17.95;72.25
36386;BME280;24125;47.482;8.770;2022-10-20T00:32:05;96503.59;;;17.97;72.06
36386;BME280;24125;47.482;8.770;2022-10-20T00:34:38;96494.38;;;17.98;71.99
36386;BME280;24125;47.482;8.770;2022-10-20T00:37:11;96491.28;;;18.00;72.02
36386;BME280;24125;47.482;8.770;2022-10-20T00:39:44;96492.84;;;18.01;72.11
36386;BME280;24125;47.482;8.770;2022-10-20T00:42:19;96497.53;;;18.04;71.95
36386;BME280;24125;47.482;8.770;2022-10-20T00:44:54;96492.91;;;18.04;72.23
36386;BME280;24125;47.482;8.770;2022-10-20T00:47:36;96495.25;;;18.06;72.12
36386;BME280;24125;47.482;8.770;2022-10-20T00:50:12;96488.69;;;18.07;72.03
36386;BME280;24125;47.482;8.770;2022-10-20T00:52:48;96494.84;;;18.07;72.26
36386;BME280;24125;47.482;8.770;2022-10-20T00:55:24;96486.81;;;18.11;72.43
36386;BME280;24125;47.482;8.770;2022-10-20T00:58:00;96487.59;;;18.12;72.24
36386;BME280;24125;47.482;8.770;2022-10-20T01:00:33;96485.66;;;18.12;71.98
36386;BME280;24125;47.482;8.770;2022-10-20T01:03:12;96477.63;;;18.16;72.08
36386;BME280;24125;47.482;8.770;2022-10-20T01:05:46;96481.09;;;18.16;71.78
36386;BME280;24125;47.482;8.770;2022-10-20T01:08:19;96478.78;;;18.18;71.83
36386;BME280;24125;47.482;8.770;2022-10-20T01:11:00;96482.31;;;18.22;71.64
36386;BME280;24125;47.482;8.770;2022-10-20T01:13:42;96471.16;;;18.24;71.66
36386;BME280;24125;47.482;8.770;2022-10-20T01:16:24;96480.81;;;18.25;71.69
36386;BME280;24125;47.482;8.770;2022-10-20T01:22:00;96472.75;;;18.28;71.48
36386;BME280;24125;47.482;8.770;2022-10-20T01:24:54;96465.41;;;18.29;71.52
36386;BME280;24125;47.482;8.770;2022-10-20T01:27:35;96465.06;;;18.30;71.63
36386;BME280;24125;47.482;8.770;2022-10-20T01:30:12;96463.91;;;18.31;71.46
36386;BME280;24125;47.482;8.770;2022-10-20T01:33:03;96465.84;;;18.34;71.57
36386;BME280;24125;47.482;8.770;2022-10-20T01:35:51;96455.47;;;18.36;71.28
36386;BME280;24125;47.482;8.770;2022-10-20T01:38:29;96463.22;;;18.38;71.41
36386;BME280;24125;47.482;8.770;2022-10-20T01:41:09;96453.19;;;18.38;71.15
36386;BME280;24125;47.482;8.770;2022-10-20T01:43:48;96448.56;;;18.39;71.27
36386;BME280;24125;47.482;8.770;2022-10-20T01:46:24;96449.31;;;18.39;71.16
36386;BME280;24125;47.482;8.770;2022-10-20T01:48:59;96442.38;;;18.38;71.33
36386;BME280;24125;47.482;8.770;2022-10-20T01:51:33;96442.00;;;18.40;71.29
36386;BME280;24125;47.482;8.770;2022-10-20T01:54:19;96434.69;;;18.44;70.96
36386;BME280;24125;47.482;8.770;2022-10-20T01:57:02;96433.56;;;18.45;71.08
36386;BME280;24125;47.482;8.770;2022-10-20T01:59:47;96422.72;;;18.45;71.29
36386;BME280;24125;47.482;8.770;2022-10-20T02:02:42;96420.44;;;18.47;70.94
36386;BME280;24125;47.482;8.770;2022-10-20T02:05:31;96409.63;;;18.47;70.97
36386;BME280;24125;47.482;8.770;2022-10-20T02:08:11;96409.28;;;18.48;70.91
36386;BME280;24125;47.482;8.770;2022-10-20T02:10:47;96418.53;;;18.47;70.79
36386;BME280;24125;47.482;8.770;2022-10-20T02:13:21;96419.66;;;18.46;70.99
36386;BME280;24125;47.482;8.770;2022-10-20T02:15:59;96421.66;;;18.50;70.84
36386;BME280;24125;47.482;8.770;2022-10-20T02:18:38;96423.94;;;18.47;70.72
36386;BME280;24125;47.482;8.770;2022-10-20T02:21:12;96430.47;;;18.46;70.97
36386;BME280;24125;47.482;8.770;2022-10-20T02:23:47;96430.91;;;18.48;71.02
36386;BME280;24125;47.482;8.770;2022-10-20T02:26:23;96417.78;;;18.51;71.06
36386;BME280;24125;47.482;8.770;2022-10-20T02:29:00;96429.00;;;18.53;71.05
36386;BME280;24125;47.482;8.770;2022-10-20T02:31:36;96419.75;;;18.54;70.95
36386;BME280;24125;47.482;8.770;2022-10-20T02:34:09;96415.13;;;18.54;70.95
36386;BME280;24125;47.482;8.770;2022-10-20T02:36:42;96419.03;;;18.57;70.77
36386;BME280;24125;47.482;8.770;2022-10-20T02:39:15;96417.44;;;18.56;70.72
36386;BME280;24125;47.482;8.770;2022-10-20T02:41:48;96411.72;;;18.57;70.69
36386;BME280;24125;47.482;8.770;2022-10-20T02:44:22;96413.19;;;18.55;70.73
36386;BME280;24125;47.482;8.770;2022-10-20T02:46:56;96413.19;;;18.55;70.57
36386;BME280;24125;47.482;8.770;2022-10-20T02:49:29;96415.88;;;18.55;70.53
36386;BME280;24125;47.482;8.770;2022-10-20T02:52:02;96413.56;;;18.53;70.69
36386;BME280;24125;47.482;8.770;2022-10-20T02:54:35;96416.63;;;18.52;70.57
36386;BME280;24125;47.482;8.770;2022-10-20T02:57:08;96410.44;;;18.51;70.67
36386;BME280;24125;47.482;8.770;2022-10-20T02:59:41;96414.31;;;18.50;70.72
36386;BME280;24125;47.482;8.770;2022-10-20T03:02:15;96416.25;;;18.50;70.76
36386;BME280;24125;47.482;8.770;2022-10-20T03:04:49;96427.06;;;18.50;70.82
36386;BME280;24125;47.482;8.770;2022-10-20T03:07:22;96424.34;;;18.50;70.87
36386;BME280;24125;47.482;8.770;2022-10-20T03:09:55;96425.50;;;18.48;70.84
36386;BME280;24125;47.482;8.770;2022-10-20T03:12:28;96418.16;;;18.49;70.98
36386;BME280;24125;47.482;8.770;2022-10-20T03:15:03;96421.66;;;18.50;70.82
36386;BME280;24125;47.482;8.770;2022-10-20T03:17:38;96425.50;;;18.48;70.87
36386;BME280;24125;47.482;8.770;2022-10-20T03:20:11;96422.00;;;18.48;70.84
36386;BME280;24125;47.482;8.770;2022-10-20T03:22:44;96420.88;;;18.49;70.62
36386;BME280;24125;47.482;8.770;2022-10-20T03:25:16;96410.41;;;18.47;70.49
36386;BME280;24125;47.482;8.770;2022-10-20T03:27:49;96420.44;;;18.47;70.61
36386;BME280;24125;47.482;8.770;2022-10-20T03:30:23;96413.47;;;18.46;70.35
36386;BME280;24125;47.482;8.770;2022-10-20T03:32:57;96412.69;;;18.45;70.64
36386;BME280;24125;47.482;8.770;2022-10-20T03:35:30;96409.59;;;18.43;70.70
36386;BME280;24125;47.482;8.770;2022-10-20T03:38:03;96409.19;;;18.41;70.54
36386;BME280;24125;47.482;8.770;2022-10-20T03:40:35;96412.63;;;18.38;70.75
36386;BME280;24125;47.482;8.770;2022-10-20T03:43:08;96419.97;;;18.38;70.51
36386;BME280;24125;47.482;8.770;2022-10-20T03:45:42;96421.47;;;18.35;70.93
36386;BME280;24125;47.482;8.770;2022-10-20T03:48:17;96413.72;;;18.34;71.10
36386;BME280;24125;47.482;8.770;2022-10-20T03:50:50;96411.78;;;18.31;71.03
36386;BME280;24125;47.482;8.770;2022-10-20T03:53:23;96404.44;;;18.31;71.03
36386;BME280;24125;47.482;8.770;2022-10-20T03:55:56;96400.59;;;18.32;71.00
36386;BME280;24125;47.482;8.770;2022-10-20T03:58:29;96389.38;;;18.30;71.13
36386;BME280;24125;47.482;8.770;2022-10-20T04:01:02;96390.53;;;18.29;71.26
36386;BME280;24125;47.482;8.770;2022-10-20T04:03:38;96402.09;;;18.30;71.29
36386;BME280;24125;47.482;8.770;2022-10-20T04:06:11;96401.34;;;18.29;71.14
36386;BME280;24125;47.482;8.770;2022-10-20T04:08:44;96399.41;;;18.30;71.11
36386;BME280;24125;47.482;8.770;2022-10-20T04:11:17;96409.44;;;18.29;71.05
36386;BME280;24125;47.482;8.770;2022-10-20T04:13:50;96393.22;;;18.29;71.20
36386;BME280;24125;47.482;8.770;2022-10-20T04:16:23;96398.25;;;18.31;71.13
36386;BME280;24125;47.482;8.770;2022-10-20T04:18:57;96386.69;;;18.30;71.15
36386;BME280;24125;47.482;8.770;2022-10-20T04:21:30;96392.06;;;18.30;71.10
36386;BME280;24125;47.482;8.770;2022-10-20T04:24:03;96392.44;;;18.29;71.29
36386;BME280;24125;47.482;8.770;2022-10-20T04:26:37;96392.03;;;18.27;71.15
36386;BME280;24125;47.482;8.770;2022-10-20T04:29:10;96387.75;;;18.26;71.05
36386;BME280;24125;47.482;8.770;2022-10-20T04:31:43;96381.22;;;18.27;70.91
36386;BME280;24125;47.482;8.770;2022-10-20T04:34:21;96378.94;;;18.29;71.09
36386;BME280;24125;47.482;8.770;2022-10-20T04:36:54;96381.22;;;18.27;71.33
36386;BME280;24125;47.482;8.770;2022-10-20T04:39:27;96373.88;;;18.27;71.16
36386;BME280;24125;47.482;8.770;2022-10-20T04:42:00;96370.03;;;18.28;71.31
36386;BME280;24125;47.482;8.770;2022-10-20T04:44:33;96374.31;;;18.29;71.16
36386;BME280;24125;47.482;8.770;2022-10-20T04:47:06;96377.00;;;18.29;71.13
36386;BME280;24125;47.482;8.770;2022-10-20T04:49:41;96366.59;;;18.31;71.21
36386;BME280;24125;47.482;8.770;2022-10-20T04:52:14;96365.84;;;18.31;70.96
36386;BME280;24125;47.482;8.770;2022-10-20T04:54:48;96352.69;;;18.29;70.83
36386;BME280;24125;47.482;8.770;2022-10-20T04:57:21;96350.34;;;18.28;70.82
36386;BME280;24125;47.482;8.770;2022-10-20T04:59:54;96352.63;;;18.26;70.78
36386;BME280;24125;47.482;8.770;2022-10-20T05:02:28;96358.81;;;18.26;71.02
36386;BME280;24125;47.482;8.770;2022-10-20T05:05:03;96351.84;;;18.22;71.04
36386;BME280;24125;47.482;8.770;2022-10-20T05:07:36;96354.13;;;18.20;70.85
36386;BME280;24125;47.482;8.770;2022-10-20T05:10:10;96338.28;;;18.18;70.71
36386;BME280;24125;47.482;8.770;2022-10-20T05:12:43;96334.41;;;18.16;70.53
36386;BME280;24125;47.482;8.770;2022-10-20T05:15:16;96336.69;;;18.14;70.39
36386;BME280;24125;47.482;8.770;2022-10-20T05:17:48;96340.91;;;18.11;70.58
36386;BME280;24125;47.482;8.770;2022-10-20T05:20:23;96337.00;;;18.08;70.66
36386;BME280;24125;47.482;8.770;2022-10-20T05:22:55;96342.38;;;18.05;70.93
36386;BME280;24125;47.482;8.770;2022-10-20T05:25:28;96333.09;;;18.02;70.83
36386;BME280;24125;47.482;8.770;2022-10-20T05:28:07;96326.50;;;18.00;71.00
36386;BME280;24125;47.482;8.770;2022-10-20T05:30:40;96324.94;;;17.99;70.84
36386;BME280;24125;47.482;8.770;2022-10-20T05:33:13;96328.03;;;17.97;71.26
36386;BME280;24125;47.482;8.770;2022-10-20T05:35:47;96327.25;;;17.97;71.27
36386;BME280;24125;47.482;8.770;2022-10-20T05:38:21;96329.94;;;17.97;71.47
36386;BME280;24125;47.482;8.770;2022-10-20T05:40:53;96312.59;;;17.98;71.44
36386;BME280;24125;47.482;8.770;2022-10-20T05:43:26;96314.13;;;17.99;71.30
36386;BME280;24125;47.482;8.770;2022-10-20T05:45:59;96314.91;;;17.99;71.59
36386;BME280;24125;47.482;8.770;2022-10-20T05:48:33;96301.78;;;17.98;71.37
36386;BME280;24125;47.482;8.770;2022-10-20T05:51:16;96304.09;;;17.99;71.38
36386;BME280;24125;47.482;8.770;2022-10-20T05:53:50;96312.22;;;17.99;71.57
36386;BME280;24125;47.482;8.770;2022-10-20T05:56:24;96314.13;;;17.99;71.66
36386;BME280;24125;47.482;8.770;2022-10-20T05:58:57;96313.38;;;17.98;71.51
36386;BME280;24125;47.482;8.770;2022-10-20T06:01:31;96312.22;;;17.99;71.84
36386;BME280;24125;47.482;8.770;2022-10-20T06:04:12;96319.59;;;18.02;71.18
36386;BME280;24125;47.482;8.770;2022-10-20T06:06:47;96319.22;;;18.04;71.32
36386;BME280;24125;47.482;8.770;2022-10-20T06:09:21;96309.97;;;18.05;71.12
36386;BME280;24125;47.482;8.770;2022-10-20T06:11:54;96306.91;;;18.06;70.97
36386;BME280;24125;47.482;8.770;2022-10-20T06:14:27;96287.22;;;18.06;70.87
36386;BME280;24125;47.482;8.770;2022-10-20T06:17:00;96291.06;;;18.05;70.50
36386;BME280;24125;47.482;8.770;2022-10-20T06:19:33;96314.97;;;18.03;70.46
36386;BME280;24125;47.482;8.770;2022-10-20T06:22:08;96322.66;;;18.01;70.67
36386;BME280;24125;47.482;8.770;2022-10-20T06:24:40;96321.44;;;17.95;70.80
36386;BME280;24125;47.482;8.770;2022-10-20T06:27:13;96335.31;;;17.93;71.28
36386;BME280;24125;47.482;8.770;2022-10-20T06:29:46;96343.41;;;17.93;71.60
36386;BME280;24125;47.482;8.770;2022-10-20T06:32:19;96337.22;;;17.93;71.52
36386;BME280;24125;47.482;8.770;2022-10-20T06:34:52;96330.69;;;17.94;71.74
36386;BME280;24125;47.482;8.770;2022-10-20T06:37:26;96336.13;;;17.97;71.72
36386;BME280;24125;47.482;8.770;2022-10-20T06:39:59;96355.84;;;18.01;71.73
36386;BME280;24125;47.482;8.770;2022-10-20T06:42:32;96352.41;;;18.04;71.44
36386;BME280;24125;47.482;8.770;2022-10-20T06:45:07;96345.88;;;18.09;71.34
36386;BME280;24125;47.482;8.770;2022-10-20T06:47:41;96351.75;;;18.15;71.62
36386;BME280;24125;47.482;8.770;2022-10-20T06:50:14;96349.09;;;18.18;71.30
36386;BME280;24125;47.482;8.770;2022-10-20T06:52:49;96356.09;;;18.23;71.60
36386;BME280;24125;47.482;8.770;2022-10-20T06:55:22;96346.09;;;18.27;71.61
36386;BME280;24125;47.482;8.770;2022-10-20T06:57:54;96329.13;;;18.30;70.94
36386;BME280;24125;47.482;8.770;2022-10-20T07:00:28;96335.34;;;18.34;71.09
36386;BME280;24125;47.482;8.770;2022-10-20T07:03:02;96341.56;;;18.38;70.68
36386;BME280;24125;47.482;8.770;2022-10-20T07:05:35;96330.03;;;18.41;70.72
36386;BME280;24125;47.482;8.770;2022-10-20T07:08:09;96329.28;;;18.44;70.22
36386;BME280;24125;47.482;8.770;2022-10-20T07:10:44;96330.88;;;18.48;70.36
36386;BME280;24125;47.482;8.770;2022-10-20T07:13:16;96324.69;;;18.52;70.52
36386;BME280;24125;47.482;8.770;2022-10-20T07:15:51;96338.25;;;18.55;70.38
36386;BME280;24125;47.482;8.770;2022-10-20T07:18:26;96347.59;;;18.58;70.23
36386;BME280;24125;47.482;8.770;2022-10-20T07:21:00;96346.47;;;18.62;70.21
36386;BME280;24125;47.482;8.770;2022-10-20T07:23:36;96341.50;;;18.68;70.12
36386;BME280;24125;47.482;8.770;2022-10-20T07:26:11;96343.09;;;18.72;69.80
36386;BME280;24125;47.482;8.770;2022-10-20T07:28:46;96337.72;;;18.76;69.94
36386;BME280;24125;47.482;8.770;2022-10-20T07:31:27;96347.03;;;18.82;69.72
36386;BME280;24125;47.482;8.770;2022-10-20T07:34:01;96347.81;;;18.86;69.50
36386;BME280;24125;47.482;8.770;2022-10-20T07:36:55;96362.94;;;18.91;69.70
36386;BME280;24125;47.482;8.770;2022-10-20T07:39:29;96366.84;;;18.93;69.53
36386;BME280;24125;47.482;8.770;2022-10-20T07:42:02;96367.22;;;18.95;69.58
36386;BME280;24125;47.482;8.770;2022-10-20T07:44:35;96378.50;;;19.01;69.67
36386;BME280;24125;47.482;8.770;2022-10-20T07:47:08;96373.50;;;19.06;69.38
36386;BME280;24125;47.482;8.770;2022-10-20T07:49:41;96377.41;;;19.12;68.98
36386;BME280;24125;47.482;8.770;2022-10-20T07:52:15;96376.31;;;19.17;68.80
36386;BME280;24125;47.482;8.770;2022-10-20T07:54:50;96374.78;;;19.23;68.57
36386;BME280;24125;47.482;8.770;2022-10-20T07:57:43;96378.31;;;19.27;68.63
36386;BME280;24125;47.482;8.770;2022-10-20T08:00:16;96378.72;;;19.33;68.62
36386;BME280;24125;47.482;8.770;2022-10-20T08:02:49;96376.44;;;19.38;68.52
36386;BME280;24125;47.482;8.770;2022-10-20T08:05:22;96366.81;;;19.44;68.68
36386;BME280;24125;47.482;8.770;2022-10-20T08:07:55;96372.31;;;19.51;68.76
36386;BME280;24125;47.482;8.770;2022-10-20T08:10:30;96368.47;;;19.59;68.43
36386;BME280;24125;47.482;8.770;2022-10-20T08:13:03;96368.50;;;19.67;67.83
36386;BME280;24125;47.482;8.770;2022-10-20T08:15:36;96372.81;;;19.75;67.76
36386;BME280;24125;47.482;8.770;2022-10-20T08:18:23;96381.75;;;19.82;67.59
36386;BME280;24125;47.482;8.770;2022-10-20T08:21:05;96386.44;;;19.89;67.47
36386;BME280;24125;47.482;8.770;2022-10-20T08:23:38;96387.59;;;19.91;67.69
36386;BME280;24125;47.482;8.770;2022-10-20T08:26:16;96388.03;;;20.01;67.18
36386;BME280;24125;47.482;8.770;2022-10-20T08:28:51;96384.56;;;20.04;67.33
36386;BME280;24125;47.482;8.770;2022-10-20T08:31:25;96406.28;;;20.11;67.41
36386;BME280;24125;47.482;8.770;2022-10-20T08:33:58;96414.81;;;20.16;67.44
36386;BME280;24125;47.482;8.770;2022-10-20T08:36:31;96416.78;;;20.23;67.20
36386;BME280;24125;47.482;8.770;2022-10-20T08:39:04;96436.94;;;20.29;67.23
36386;BME280;24125;47.482;8.770;2022-10-20T08:41:42;96453.25;;;20.36;66.84
36386;BME280;24125;47.482;8.770;2022-10-20T08:44:37;96453.28;;;20.40;66.54
36386;BME280;24125;47.482;8.770;2022-10-20T08:47:21;96444.78;;;20.45;66.32
36386;BME280;24125;47.482;8.770;2022-10-20T08:50:00;96462.59;;;20.46;66.43
36386;BME280;24125;47.482;8.770;2022-10-20T08:52:34;96451.38;;;20.47;66.47
36386;BME280;24125;47.482;8.770;2022-10-20T08:55:12;96449.44;;;20.51;66.49
36386;BME280;24125;47.482;8.770;2022-10-20T08:57:59;96466.50;;;20.55;66.58
36386;BME280;24125;47.482;8.770;2022-10-20T09:00:35;96469.22;;;20.59;66.69
36386;BME280;24125;47.482;8.770;2022-10-20T09:03:13;96461.50;;;20.64;66.43
36386;BME280;24125;47.482;8.770;2022-10-20T09:05:51;96465.38;;;20.70;66.18
36386;BME280;24125;47.482;8.770;2022-10-20T09:08:27;96455.72;;;20.73;66.07
36386;BME280;24125;47.482;8.770;2022-10-20T09:11:01;96443.69;;;20.78;66.53
36386;BME280;24125;47.482;8.770;2022-10-20T09:13:37;96430.91;;;20.85;66.60
36386;BME280;24125;47.482;8.770;2022-10-20T09:16:13;96437.91;;;20.93;66.42
36386;BME280;24125;47.482;8.770;2022-10-20T09:19:14;96446.84;;;21.08;66.55
36386;BME280;24125;47.482;8.770;2022-10-20T09:21:51;96435.28;;;21.18;66.25
36386;BME280;24125;47.482;8.770;2022-10-20T09:24:27;96440.28;;;21.30;65.50
36386;BME280;24125;47.482;8.770;2022-10-20T09:27:19;96434.47;;;21.42;65.44
36386;BME280;24125;47.482;8.770;2022-10-20T09:29:53;96432.91;;;21.49;64.96
36386;BME280;24125;47.482;8.770;2022-10-20T09:32:34;96431.75;;;21.57;65.05
36386;BME280;24125;47.482;8.770;2022-10-20T09:35:25;96434.44;;;21.64;64.74
36386;BME280;24125;47.482;8.770;2022-10-20T09:38:03;96438.72;;;21.68;64.69
36386;BME280;24125;47.482;8.770;2022-10-20T09:40:42;96445.69;;;21.73;64.48
36386;BME280;24125;47.482;8.770;2022-10-20T09:43:17;96439.50;;;21.76;64.41
36386;BME280;24125;47.482;8.770;2022-10-20T09:45:54;96436.75;;;21.83;63.98
36386;BME280;24125;47.482;8.770;2022-10-20T09:48:31;96438.69;;;21.86;64.09
36386;BME280;24125;47.482;8.770;2022-10-20T09:51:11;96428.19;;;21.88;63.71
36386;BME280;24125;47.482;8.770;2022-10-20T09:53:50;96445.66;;;21.94;63.56
36386;BME280;24125;47.482;8.770;2022-10-20T09:56:28;96430.13;;;21.95;63.81
36386;BME280;24125;47.482;8.770;2022-10-20T09:59:04;96431.31;;;21.97;63.62
36386;BME280;24125;47.482;8.770;2022-10-20T10:01:52;96431.69;;;21.99;63.58
36386;BME280;24125;47.482;8.770;2022-10-20T10:04:31;96432.84;;;22.02;63.28
36386;BME280;24125;47.482;8.770;2022-10-20T10:07:09;96435.56;;;22.02;63.44
36386;BME280;24125;47.482;8.770;2022-10-20T10:09:59;96437.91;;;22.03;63.46
36386;BME280;24125;47.482;8.770;2022-10-20T10:12:38;96428.59;;;22.04;63.14
36386;BME280;24125;47.482;8.770;2022-10-20T10:15:25;96429.72;;;22.07;63.18
36386;BME280;24125;47.482;8.770;2022-10-20T10:18:10;96432.44;;;22.10;63.51
36386;BME280;24125;47.482;8.770;2022-10-20T10:20:44;96425.06;;;22.11;63.38
36386;BME280;24125;47.482;8.770;2022-10-20T10:23:19;96434.34;;;22.17;63.39
36386;BME280;24125;47.482;8.770;2022-10-20T10:25:53;96426.19;;;22.20;63.53
36386;BME280;24125;47.482;8.770;2022-10-20T10:28:35;96426.94;;;22.28;62.76
36386;BME280;24125;47.482;8.770;2022-10-20T10:31:18;96426.13;;;22.35;62.75
36386;BME280;24125;47.482;8.770;2022-10-20T10:34:04;96407.09;;;22.38;62.32
36386;BME280;24125;47.482;8.770;2022-10-20T10:36:52;96412.13;;;22.40;62.31
36386;BME280;24125;47.482;8.770;2022-10-20T10:39:28;96413.25;;;22.42;62.17
36386;BME280;24125;47.482;8.770;2022-10-20T10:45:14;96412.09;;;22.43;62.18
36386;BME280;24125;47.482;8.770;2022-10-20T10:48:12;96411.72;;;22.45;62.26
36386;BME280;24125;47.482;8.770;2022-10-20T10:50:51;96413.25;;;22.46;62.24
36386;BME280;24125;47.482;8.770;2022-10-20T10:53:37;96391.09;;;22.47;62.20
36386;BME280;24125;47.482;8.770;2022-10-20T10:56:15;96387.22;;;22.48;62.21
36386;BME280;24125;47.482;8.770;2022-10-20T10:58:54;96379.00;;;22.52;61.64
36386;BME280;24125;47.482;8.770;2022-10-20T11:01:53;96361.50;;;22.56;61.85
36386;BME280;24125;47.482;8.770;2022-10-20T11:07:56;96347.47;;;22.65;61.72
36386;BME280;24125;47.482;8.770;2022-10-20T11:10:40;96346.25;;;22.70;61.50
36386;BME280;24125;47.482;8.770;2022-10-20T11:13:26;96334.97;;;22.75;61.32
36386;BME280;24125;47.482;8.770;2022-10-20T11:16:10;96329.09;;;22.80;61.50
36386;BME280;24125;47.482;8.770;2022-10-20T11:22:04;96306.06;;;22.91;61.06
36386;BME280;24125;47.482;8.770;2022-10-20T11:24:48;96301.75;;;22.98;61.42
36386;BME280;24125;47.482;8.770;2022-10-20T11:27:29;96296.22;;;23.05;61.45
36386;BME280;24125;47.482;8.770;2022-10-20T11:30:11;96298.88;;;23.12;61.39
36386;BME280;24125;47.482;8.770;2022-10-20T11:32:50;96304.63;;;23.21;61.09
36386;BME280;24125;47.482;8.770;2022-10-20T11:35:30;96308.81;;;23.29;60.90
36386;BME280;24125;47.482;8.770;2022-10-20T11:38:13;96318.06;;;23.39;61.22
36386;BME280;24125;47.482;8.770;2022-10-20T11:40:58;96309.06;;;23.49;61.00
36386;BME280;24125;47.482;8.770;2022-10-20T11:43:36;96309.34;;;23.58;60.98
36386;BME280;24125;47.482;8.770;2022-10-20T11:46:13;96305.72;;;23.68;60.27
36386;BME280;24125;47.482;8.770;2022-10-20T11:48:48;96306.00;;;23.77;60.01
36386;BME280;24125;47.482;8.770;2022-10-20T11:51:47;96302.38;;;23.87;60.30
36386;BME280;24125;47.482;8.770;2022-10-20T11:54:43;96311.97;;;23.99;60.05
36386;BME280;24125;47.482;8.770;2022-10-20T11:57:37;96311.47;;;24.07;59.59
36386;BME280;24125;47.482;8.770;2022-10-20T12:00:25;96317.97;;;24.17;59.56
36386;BME280;24125;47.482;8.770;2022-10-20T12:03:26;96319.81;;;24.27;59.24
36386;BME280;24125;47.482;8.770;2022-10-20T12:06:44;96331.00;;;24.36;59.18
36386;BME280;24125;47.482;8.770;2022-10-20T12:09:45;96324.66;;;24.43;58.11
36386;BME280;24125;47.482;8.770;2022-10-20T12:12:28;96319.56;;;24.45;58.11
36386;BME280;24125;47.482;8.770;2022-10-20T12:15:17;96312.94;;;24.46;58.50
36386;BME280;24125;47.482;8.770;2022-10-20T12:17:52;96305.97;;;24.41;58.60
36386;BME280;24125;47.482;8.770;2022-10-20T12:20:50;96285.72;;;24.39;58.75
36386;BME280;24125;47.482;8.770;2022-10-20T12:23:51;96275.25;;;24.37;58.59
36386;BME280;24125;47.482;8.770;2022-10-20T12:26:36;96270.97;;;24.36;58.51
36386;BME280;24125;47.482;8.770;2022-10-20T12:32:55;96269.41;;;24.35;nan
36386;BME280;24125;47.482;8.770;2022-10-20T12:35:56;96257.72;;;24.35;58.54
36386;BME280;24125;47.482;8.770;2022-10-20T12:38:29;96247.22;;;24.33;58.17
36386;BME280;24125;47.482;8.770;2022-10-20T12:41:03;96228.13;;;24.33;58.16
36386;BME280;24125;47.482;8.770;2022-10-20T12:43:47;96213.31;;;24.34;58.09
36386;BME280;24125;47.482;8.770;2022-10-20T12:46:25;96200.06;;;24.33;57.35
36386;BME280;24125;47.482;8.770;2022-10-20T12:49:03;96180.59;;;24.31;57.59
36386;BME280;24125;47.482;8.770;2022-10-20T12:51:47;96167.41;;;24.29;57.41
36386;BME280;24125;47.482;8.770;2022-10-20T12:54:24;96180.31;;;24.25;57.41
36386;BME280;24125;47.482;8.770;2022-10-20T12:57:01;96181.13;;;24.22;57.34
36386;BME280;24125;47.482;8.770;2022-10-20T12:59:38;96169.09;;;24.20;57.38
36386;BME280;24125;47.482;8.770;2022-10-20T13:02:42;96171.50;;;24.14;57.24
36386;BME280;24125;47.482;8.770;2022-10-20T13:05:42;96181.69;;;24.10;57.66
36386;BME280;24125;47.482;8.770;2022-10-20T13:08:24;96192.25;;;24.08;57.74
36386;BME280;24125;47.482;8.770;2022-10-20T13:13:56;96147.06;;;24.07;58.30
36386;BME280;24125;47.482;8.770;2022-10-20T13:16:35;96149.84;;;24.03;58.37
36386;BME280;24125;47.482;8.770;2022-10-20T13:19:13;96174.41;;;24.03;58.01
36386;BME280;24125;47.482;8.770;2022-10-20T13:21:50;96147.94;;;24.00;58.23
36386;BME280;24125;47.482;8.770;2022-10-20T13:24:28;96148.72;;;24.01;58.16
36386;BME280;24125;47.482;8.770;2022-10-20T13:27:07;96176.00;;;24.01;58.69
36386;BME280;24125;47.482;8.770;2022-10-20T13:29:45;96163.56;;;23.96;58.35
36386;BME280;24125;47.482;8.770;2022-10-20T13:32:22;96140.25;;;23.95;58.70
36386;BME280;24125;47.482;8.770;2022-10-20T13:35:02;96155.09;;;23.91;58.33
36386;BME280;24125;47.482;8.770;2022-10-20T13:37:50;96167.66;;;23.85;58.23
36386;BME280;24125;47.482;8.770;2022-10-20T13:40:38;96170.91;;;23.76;58.26
36386;BME280;24125;47.482;8.770;2022-10-20T13:43:24;96166.38;;;23.66;58.59
36386;BME280;24125;47.482;8.770;2022-10-20T13:46:21;96170.38;;;23.58;58.80
36386;BME280;24125;47.482;8.770;2022-10-20T13:49:05;96192.25;;;23.47;58.63
36386;BME280;24125;47.482;8.770;2022-10-20T13:51:46;96205.19;;;23.40;59.25
36386;BME280;24125;47.482;8.770;2022-10-20T13:54:24;96211.50;;;23.33;59.32
36386;BME280;24125;47.482;8.770;2022-10-20T13:56:58;96221.75;;;23.22;59.46
36386;BME280;24125;47.482;8.770;2022-10-20T13:59:31;96217.56;;;23.14;59.62
36386;BME280;24125;47.482;8.770;2022-10-20T14:02:23;96215.69;;;23.07;59.10
36386;BME280;24125;47.482;8.770;2022-10-20T14:05:06;96215.41;;;22.98;59.26
36386;BME280;24125;47.482;8.770;2022-10-20T14:07:41;96187.13;;;22.85;59.28
36386;BME280;24125;47.482;8.770;2022-10-20T14:10:29;96194.63;;;22.74;59.91
36386;BME280;24125;47.482;8.770;2022-10-20T14:13:06;96214.16;;;22.62;60.11
36386;BME280;24125;47.482;8.770;2022-10-20T14:15:44;96222.00;;;22.49;59.99